sensor_id;sensor_type;location;lat;lon;timestamp;P1;durP1;ratioP1;P2;durP2;ratioP2
59147;SDS011;44930;52.878;6.168;2023-08-01T00:02:09;15.07;;;4.22;;
59147;SDS011;44930;52.878;6.168;2023-08-01T00:04:35;14.20;;;4.80;;
59147;SDS011;44930;52.878;6.168;2023-08-01T00:07:01;12.10;;;4.05;;
59147;SDS011;44930;52.878;6.168;2023-08-01T00:09:26;13.65;;;4.32;;
59147;SDS011;44930;52.878;6.168;2023-08-01T00:11:52;9.77;;;4.30;;
59147;SDS011;44930;52.878;6.168;2023-08-01T00:14:18;12.23;;;4.15;;
59147;SDS011;44930;52.878;6.168;2023-08-01T00:16:45;18.20;;;5.93;;
59147;SDS011;44930;52.878;6.168;2023-08-01T00:19:10;17.33;;;5.03;;
59147;SDS011;44930;52.878;6.168;2023-08-01T00:21:37;8.95;;;4.03;;
59147;SDS011;44930;52.878;6.168;2023-08-01T00:24:03;12.10;;;3.90;;
59147;SDS011;44930;52.878;6.168;2023-08-01T00:26:30;10.70;;;3.80;;
59147;SDS011;44930;52.878;6.168;2023-08-01T00:28:55;11.20;;;4.15;;
59147;SDS011;44930;52.878;6.168;2023-08-01T00:31:21;11.80;;;3.55;;
59147;SDS011;44930;52.878;6.168;2023-08-01T00:33:47;10.93;;;4.55;;
59147;SDS011;44930;52.878;6.168;2023-08-01T00:36:12;16.15;;;4.80;;
59147;SDS011;44930;52.878;6.168;2023-08-01T00:38:38;13.25;;;4.93;;
59147;SDS011;44930;52.878;6.168;2023-08-01T00:41:03;11.32;;;2.92;;
59147;SDS011;44930;52.878;6.168;2023-08-01T00:43:29;13.30;;;3.60;;
59147;SDS011;44930;52.878;6.168;2023-08-01T00:45:57;14.43;;;4.25;;
59147;SDS011;44930;52.878;6.168;2023-08-01T00:48:25;12.90;;;4.00;;
59147;SDS011;44930;52.878;6.168;2023-08-01T00:50:50;10.32;;;3.92;;
59147;SDS011;44930;52.878;6.168;2023-08-01T00:53:17;10.38;;;3.83;;
59147;SDS011;44930;52.878;6.168;2023-08-01T00:55:43;8.60;;;3.63;;
59147;SDS011;44930;52.878;6.168;2023-08-01T00:58:10;12.05;;;3.95;;
59147;SDS011;44930;52.878;6.168;2023-08-01T01:00:35;11.88;;;3.55;;
59147;SDS011;44930;52.878;6.168;2023-08-01T01:03:01;11.15;;;3.75;;
59147;SDS011;44930;52.878;6.168;2023-08-01T01:05:27;10.25;;;4.35;;
59147;SDS011;44930;52.878;6.168;2023-08-01T01:08:02;8.73;;;3.67;;
59147;SDS011;44930;52.878;6.168;2023-08-01T01:10:28;9.57;;;4.00;;
59147;SDS011;44930;52.878;6.168;2023-08-01T01:12:53;9.52;;;4.25;;
59147;SDS011;44930;52.878;6.168;2023-08-01T01:15:20;11.60;;;3.63;;
59147;SDS011;44930;52.878;6.168;2023-08-01T01:17:45;13.95;;;3.88;;
59147;SDS011;44930;52.878;6.168;2023-08-01T01:20:11;7.00;;;3.78;;
59147;SDS011;44930;52.878;6.168;2023-08-01T01:22:37;11.57;;;4.50;;
59147;SDS011;44930;52.878;6.168;2023-08-01T01:25:05;7.18;;;3.78;;
59147;SDS011;44930;52.878;6.168;2023-08-01T01:27:33;10.43;;;4.35;;
59147;SDS011;44930;52.878;6.168;2023-08-01T01:30:01;12.85;;;4.22;;
59147;SDS011;44930;52.878;6.168;2023-08-01T01:32:29;15.88;;;4.68;;
59147;SDS011;44930;52.878;6.168;2023-08-01T01:34:55;13.90;;;4.63;;
59147;SDS011;44930;52.878;6.168;2023-08-01T01:37:21;11.38;;;4.85;;
59147;SDS011;44930;52.878;6.168;2023-08-01T01:39:46;16.33;;;5.50;;
59147;SDS011;44930;52.878;6.168;2023-08-01T01:42:12;13.32;;;4.47;;
59147;SDS011;44930;52.878;6.168;2023-08-01T01:44:38;13.65;;;5.32;;
59147;SDS011;44930;52.878;6.168;2023-08-01T01:47:04;9.35;;;5.30;;
59147;SDS011;44930;52.878;6.168;2023-08-01T01:49:31;14.90;;;5.13;;
59147;SDS011;44930;52.878;6.168;2023-08-01T01:51:56;9.80;;;4.78;;
59147;SDS011;44930;52.878;6.168;2023-08-01T01:54:22;11.77;;;5.18;;
59147;SDS011;44930;52.878;6.168;2023-08-01T01:56:48;12.25;;;5.05;;
59147;SDS011;44930;52.878;6.168;2023-08-01T01:59:13;11.90;;;5.18;;
59147;SDS011;44930;52.878;6.168;2023-08-01T02:01:39;14.07;;;5.47;;
59147;SDS011;44930;52.878;6.168;2023-08-01T02:04:04;11.07;;;5.55;;
59147;SDS011;44930;52.878;6.168;2023-08-01T02:06:30;17.83;;;5.53;;
59147;SDS011;44930;52.878;6.168;2023-08-01T02:08:55;12.57;;;5.20;;
59147;SDS011;44930;52.878;6.168;2023-08-01T02:11:21;14.02;;;5.93;;
59147;SDS011;44930;52.878;6.168;2023-08-01T02:13:46;13.65;;;5.35;;
59147;SDS011;44930;52.878;6.168;2023-08-01T02:16:12;14.70;;;5.38;;
59147;SDS011;44930;52.878;6.168;2023-08-01T02:18:37;17.17;;;5.03;;
59147;SDS011;44930;52.878;6.168;2023-08-01T02:21:03;16.63;;;5.18;;
59147;SDS011;44930;52.878;6.168;2023-08-01T02:23:28;13.95;;;5.32;;
59147;SDS011;44930;52.878;6.168;2023-08-01T02:25:54;21.45;;;7.75;;
59147;SDS011;44930;52.878;6.168;2023-08-01T02:28:20;12.00;;;4.68;;
59147;SDS011;44930;52.878;6.168;2023-08-01T02:30:45;11.48;;;4.70;;
59147;SDS011;44930;52.878;6.168;2023-08-01T02:33:11;14.20;;;5.53;;
59147;SDS011;44930;52.878;6.168;2023-08-01T02:35:37;17.23;;;5.32;;
59147;SDS011;44930;52.878;6.168;2023-08-01T02:38:02;14.30;;;4.55;;
59147;SDS011;44930;52.878;6.168;2023-08-01T02:40:28;16.63;;;6.15;;
59147;SDS011;44930;52.878;6.168;2023-08-01T02:42:54;12.75;;;4.88;;
59147;SDS011;44930;52.878;6.168;2023-08-01T02:45:20;15.02;;;5.53;;
59147;SDS011;44930;52.878;6.168;2023-08-01T02:47:45;19.90;;;5.72;;
59147;SDS011;44930;52.878;6.168;2023-08-01T02:50:11;21.02;;;5.78;;
59147;SDS011;44930;52.878;6.168;2023-08-01T02:52:36;10.07;;;4.35;;
59147;SDS011;44930;52.878;6.168;2023-08-01T02:55:02;12.90;;;4.63;;
59147;SDS011;44930;52.878;6.168;2023-08-01T02:57:28;14.85;;;4.15;;
59147;SDS011;44930;52.878;6.168;2023-08-01T02:59:53;9.98;;;2.83;;
59147;SDS011;44930;52.878;6.168;2023-08-01T03:02:19;6.88;;;2.15;;
59147;SDS011;44930;52.878;6.168;2023-08-01T03:04:44;7.97;;;1.92;;
59147;SDS011;44930;52.878;6.168;2023-08-01T03:07:10;6.20;;;2.20;;
59147;SDS011;44930;52.878;6.168;2023-08-01T03:09:35;10.55;;;1.63;;
59147;SDS011;44930;52.878;6.168;2023-08-01T03:12:01;4.22;;;1.63;;
59147;SDS011;44930;52.878;6.168;2023-08-01T03:14:27;4.28;;;1.50;;
59147;SDS011;44930;52.878;6.168;2023-08-01T03:16:52;5.03;;;1.35;;
59147;SDS011;44930;52.878;6.168;2023-08-01T03:19:18;5.18;;;1.25;;
59147;SDS011;44930;52.878;6.168;2023-08-01T03:21:43;2.50;;;1.23;;
59147;SDS011;44930;52.878;6.168;2023-08-01T03:24:09;5.07;;;1.60;;
59147;SDS011;44930;52.878;6.168;2023-08-01T03:26:35;3.90;;;1.23;;
59147;SDS011;44930;52.878;6.168;2023-08-01T03:29:01;3.72;;;1.25;;
59147;SDS011;44930;52.878;6.168;2023-08-01T03:31:26;5.30;;;1.63;;
59147;SDS011;44930;52.878;6.168;2023-08-01T03:33:52;4.25;;;1.20;;
59147;SDS011;44930;52.878;6.168;2023-08-01T03:36:18;3.47;;;1.10;;
59147;SDS011;44930;52.878;6.168;2023-08-01T03:38:43;6.55;;;1.83;;
59147;SDS011;44930;52.878;6.168;2023-08-01T03:41:09;6.63;;;1.67;;
59147;SDS011;44930;52.878;6.168;2023-08-01T03:43:35;3.03;;;1.20;;
59147;SDS011;44930;52.878;6.168;2023-08-01T03:46:00;4.40;;;1.30;;
59147;SDS011;44930;52.878;6.168;2023-08-01T03:48:26;5.05;;;1.90;;
59147;SDS011;44930;52.878;6.168;2023-08-01T03:50:51;8.30;;;1.70;;
59147;SDS011;44930;52.878;6.168;2023-08-01T03:53:17;4.53;;;1.30;;
59147;SDS011;44930;52.878;6.168;2023-08-01T03:55:43;6.22;;;1.58;;
59147;SDS011;44930;52.878;6.168;2023-08-01T03:58:09;3.70;;;1.00;;
59147;SDS011;44930;52.878;6.168;2023-08-01T04:00:35;3.80;;;1.35;;
59147;SDS011;44930;52.878;6.168;2023-08-01T04:03:00;4.50;;;1.35;;
59147;SDS011;44930;52.878;6.168;2023-08-01T04:05:27;4.28;;;2.28;;
59147;SDS011;44930;52.878;6.168;2023-08-01T04:07:53;4.05;;;1.33;;
59147;SDS011;44930;52.878;6.168;2023-08-01T04:10:20;3.22;;;1.30;;
59147;SDS011;44930;52.878;6.168;2023-08-01T04:12:46;4.03;;;1.15;;
59147;SDS011;44930;52.878;6.168;2023-08-01T04:15:12;3.20;;;1.33;;
59147;SDS011;44930;52.878;6.168;2023-08-01T04:17:37;2.97;;;1.40;;
59147;SDS011;44930;52.878;6.168;2023-08-01T04:20:03;2.15;;;1.20;;
59147;SDS011;44930;52.878;6.168;2023-08-01T04:22:29;5.50;;;1.33;;
59147;SDS011;44930;52.878;6.168;2023-08-01T04:24:55;7.20;;;1.60;;
59147;SDS011;44930;52.878;6.168;2023-08-01T04:27:20;2.97;;;1.35;;
59147;SDS011;44930;52.878;6.168;2023-08-01T04:29:46;5.85;;;1.40;;
59147;SDS011;44930;52.878;6.168;2023-08-01T04:32:12;4.32;;;1.30;;
59147;SDS011;44930;52.878;6.168;2023-08-01T04:34:39;4.57;;;1.70;;
59147;SDS011;44930;52.878;6.168;2023-08-01T04:37:06;6.22;;;1.60;;
59147;SDS011;44930;52.878;6.168;2023-08-01T04:39:31;4.57;;;1.70;;
59147;SDS011;44930;52.878;6.168;2023-08-01T04:41:57;4.60;;;2.00;;
59147;SDS011;44930;52.878;6.168;2023-08-01T04:44:22;4.57;;;1.73;;
59147;SDS011;44930;52.878;6.168;2023-08-01T04:46:48;3.53;;;1.40;;
59147;SDS011;44930;52.878;6.168;2023-08-01T04:49:14;3.17;;;1.38;;
59147;SDS011;44930;52.878;6.168;2023-08-01T04:51:40;3.70;;;1.70;;
59147;SDS011;44930;52.878;6.168;2023-08-01T04:54:05;5.05;;;1.35;;
59147;SDS011;44930;52.878;6.168;2023-08-01T04:56:31;2.75;;;1.52;;
59147;SDS011;44930;52.878;6.168;2023-08-01T04:58:56;3.65;;;1.70;;
59147;SDS011;44930;52.878;6.168;2023-08-01T05:01:22;2.47;;;1.17;;
59147;SDS011;44930;52.878;6.168;2023-08-01T05:03:47;7.38;;;1.73;;
59147;SDS011;44930;52.878;6.168;2023-08-01T05:06:13;3.03;;;1.40;;
59147;SDS011;44930;52.878;6.168;2023-08-01T05:08:38;3.33;;;1.33;;
59147;SDS011;44930;52.878;6.168;2023-08-01T05:11:04;4.15;;;1.50;;
59147;SDS011;44930;52.878;6.168;2023-08-01T05:13:29;5.38;;;1.67;;
59147;SDS011;44930;52.878;6.168;2023-08-01T05:15:55;3.65;;;1.63;;
59147;SDS011;44930;52.878;6.168;2023-08-01T05:18:21;8.18;;;2.55;;
59147;SDS011;44930;52.878;6.168;2023-08-01T05:20:47;11.57;;;2.10;;
59147;SDS011;44930;52.878;6.168;2023-08-01T05:23:12;4.35;;;1.88;;
59147;SDS011;44930;52.878;6.168;2023-08-01T05:25:38;4.53;;;1.70;;
59147;SDS011;44930;52.878;6.168;2023-08-01T05:28:04;7.00;;;2.00;;
59147;SDS011;44930;52.878;6.168;2023-08-01T05:30:29;7.25;;;1.90;;
59147;SDS011;44930;52.878;6.168;2023-08-01T05:32:55;8.00;;;1.90;;
59147;SDS011;44930;52.878;6.168;2023-08-01T05:35:20;8.05;;;2.25;;
59147;SDS011;44930;52.878;6.168;2023-08-01T05:37:46;4.20;;;2.00;;
59147;SDS011;44930;52.878;6.168;2023-08-01T05:40:12;7.10;;;2.05;;
59147;SDS011;44930;52.878;6.168;2023-08-01T05:42:37;8.93;;;2.03;;
59147;SDS011;44930;52.878;6.168;2023-08-01T05:45:03;6.05;;;1.95;;
59147;SDS011;44930;52.878;6.168;2023-08-01T05:47:29;4.63;;;1.85;;
59147;SDS011;44930;52.878;6.168;2023-08-01T05:49:55;4.88;;;2.30;;
59147;SDS011;44930;52.878;6.168;2023-08-01T05:52:21;5.63;;;2.35;;
59147;SDS011;44930;52.878;6.168;2023-08-01T05:54:47;6.43;;;1.95;;
59147;SDS011;44930;52.878;6.168;2023-08-01T05:57:12;5.13;;;2.13;;
59147;SDS011;44930;52.878;6.168;2023-08-01T05:59:38;5.25;;;2.17;;
59147;SDS011;44930;52.878;6.168;2023-08-01T06:02:03;6.53;;;2.35;;
59147;SDS011;44930;52.878;6.168;2023-08-01T06:04:29;3.70;;;1.70;;
59147;SDS011;44930;52.878;6.168;2023-08-01T06:06:55;7.20;;;1.90;;
59147;SDS011;44930;52.878;6.168;2023-08-01T06:09:21;8.27;;;2.10;;
59147;SDS011;44930;52.878;6.168;2023-08-01T06:11:46;6.00;;;2.35;;
59147;SDS011;44930;52.878;6.168;2023-08-01T06:14:12;5.97;;;2.05;;
59147;SDS011;44930;52.878;6.168;2023-08-01T06:16:38;5.55;;;2.13;;
59147;SDS011;44930;52.878;6.168;2023-08-01T06:19:03;3.45;;;1.55;;
59147;SDS011;44930;52.878;6.168;2023-08-01T06:21:29;5.75;;;1.80;;
59147;SDS011;44930;52.878;6.168;2023-08-01T06:23:55;4.22;;;1.70;;
59147;SDS011;44930;52.878;6.168;2023-08-01T06:26:20;3.70;;;1.73;;
59147;SDS011;44930;52.878;6.168;2023-08-01T06:28:46;6.15;;;1.95;;
59147;SDS011;44930;52.878;6.168;2023-08-01T06:31:11;4.68;;;1.60;;
59147;SDS011;44930;52.878;6.168;2023-08-01T06:33:37;6.82;;;2.00;;
59147;SDS011;44930;52.878;6.168;2023-08-01T06:36:02;5.28;;;1.45;;
59147;SDS011;44930;52.878;6.168;2023-08-01T06:38:29;3.92;;;1.35;;
59147;SDS011;44930;52.878;6.168;2023-08-01T06:40:54;3.15;;;1.50;;
59147;SDS011;44930;52.878;6.168;2023-08-01T06:43:20;5.18;;;1.20;;
59147;SDS011;44930;52.878;6.168;2023-08-01T06:45:45;3.03;;;1.58;;
59147;SDS011;44930;52.878;6.168;2023-08-01T06:48:11;4.45;;;1.55;;
59147;SDS011;44930;52.878;6.168;2023-08-01T06:50:37;5.13;;;1.45;;
59147;SDS011;44930;52.878;6.168;2023-08-01T06:53:02;5.35;;;2.00;;
59147;SDS011;44930;52.878;6.168;2023-08-01T06:55:28;4.47;;;1.25;;
59147;SDS011;44930;52.878;6.168;2023-08-01T06:57:53;3.92;;;1.05;;
59147;SDS011;44930;52.878;6.168;2023-08-01T07:00:19;6.45;;;1.17;;
59147;SDS011;44930;52.878;6.168;2023-08-01T07:02:44;5.10;;;1.35;;
59147;SDS011;44930;52.878;6.168;2023-08-01T07:05:10;7.88;;;1.42;;
59147;SDS011;44930;52.878;6.168;2023-08-01T07:07:36;5.20;;;1.20;;
59147;SDS011;44930;52.878;6.168;2023-08-01T07:10:01;7.82;;;1.45;;
59147;SDS011;44930;52.878;6.168;2023-08-01T07:12:27;5.80;;;1.20;;
59147;SDS011;44930;52.878;6.168;2023-08-01T07:14:52;5.50;;;1.50;;
59147;SDS011;44930;52.878;6.168;2023-08-01T07:17:18;4.50;;;1.25;;
59147;SDS011;44930;52.878;6.168;2023-08-01T07:19:44;6.53;;;2.03;;
59147;SDS011;44930;52.878;6.168;2023-08-01T07:22:09;8.93;;;2.92;;
59147;SDS011;44930;52.878;6.168;2023-08-01T07:24:35;6.18;;;1.77;;
59147;SDS011;44930;52.878;6.168;2023-08-01T07:27:00;4.90;;;1.73;;
59147;SDS011;44930;52.878;6.168;2023-08-01T07:29:26;8.10;;;1.75;;
59147;SDS011;44930;52.878;6.168;2023-08-01T07:31:51;4.75;;;1.33;;
59147;SDS011;44930;52.878;6.168;2023-08-01T07:34:17;5.57;;;1.42;;
59147;SDS011;44930;52.878;6.168;2023-08-01T07:36:45;5.50;;;1.67;;
59147;SDS011;44930;52.878;6.168;2023-08-01T07:39:14;5.60;;;1.40;;
59147;SDS011;44930;52.878;6.168;2023-08-01T07:41:40;7.50;;;2.00;;
59147;SDS011;44930;52.878;6.168;2023-08-01T07:44:05;3.15;;;1.10;;
59147;SDS011;44930;52.878;6.168;2023-08-01T07:46:31;3.05;;;1.17;;
59147;SDS011;44930;52.878;6.168;2023-08-01T07:48:57;5.78;;;1.65;;
59147;SDS011;44930;52.878;6.168;2023-08-01T07:51:24;4.68;;;1.33;;
59147;SDS011;44930;52.878;6.168;2023-08-01T07:53:50;6.82;;;1.95;;
59147;SDS011;44930;52.878;6.168;2023-08-01T07:56:17;7.90;;;1.80;;
59147;SDS011;44930;52.878;6.168;2023-08-01T07:58:42;5.28;;;1.55;;
59147;SDS011;44930;52.878;6.168;2023-08-01T08:01:08;3.28;;;1.45;;
59147;SDS011;44930;52.878;6.168;2023-08-01T08:03:33;6.72;;;1.90;;
59147;SDS011;44930;52.878;6.168;2023-08-01T08:05:59;7.85;;;2.00;;
59147;SDS011;44930;52.878;6.168;2023-08-01T08:08:25;9.75;;;2.38;;
59147;SDS011;44930;52.878;6.168;2023-08-01T08:10:51;6.30;;;2.05;;
59147;SDS011;44930;52.878;6.168;2023-08-01T08:13:17;4.40;;;1.67;;
59147;SDS011;44930;52.878;6.168;2023-08-01T08:15:43;7.55;;;2.55;;
59147;SDS011;44930;52.878;6.168;2023-08-01T08:18:09;8.85;;;2.25;;
59147;SDS011;44930;52.878;6.168;2023-08-01T08:20:40;8.98;;;2.65;;
59147;SDS011;44930;52.878;6.168;2023-08-01T08:23:07;9.60;;;2.78;;
59147;SDS011;44930;52.878;6.168;2023-08-01T08:25:33;10.50;;;3.15;;
59147;SDS011;44930;52.878;6.168;2023-08-01T08:27:59;11.35;;;3.15;;
59147;SDS011;44930;52.878;6.168;2023-08-01T08:30:24;16.90;;;3.50;;
59147;SDS011;44930;52.878;6.168;2023-08-01T08:32:50;9.32;;;3.08;;
59147;SDS011;44930;52.878;6.168;2023-08-01T08:35:16;8.07;;;2.63;;
59147;SDS011;44930;52.878;6.168;2023-08-01T08:37:41;9.60;;;3.13;;
59147;SDS011;44930;52.878;6.168;2023-08-01T08:40:07;13.05;;;3.25;;
59147;SDS011;44930;52.878;6.168;2023-08-01T08:42:33;15.63;;;4.53;;
59147;SDS011;44930;52.878;6.168;2023-08-01T08:45:00;10.13;;;3.03;;
59147;SDS011;44930;52.878;6.168;2023-08-01T08:47:28;12.95;;;3.33;;
59147;SDS011;44930;52.878;6.168;2023-08-01T08:49:55;9.82;;;3.40;;
59147;SDS011;44930;52.878;6.168;2023-08-01T08:52:22;15.52;;;3.25;;
59147;SDS011;44930;52.878;6.168;2023-08-01T08:54:49;13.80;;;3.70;;
59147;SDS011;44930;52.878;6.168;2023-08-01T08:57:15;11.07;;;3.80;;
59147;SDS011;44930;52.878;6.168;2023-08-01T08:59:41;14.50;;;3.55;;
59147;SDS011;44930;52.878;6.168;2023-08-01T09:02:08;13.57;;;3.65;;
59147;SDS011;44930;52.878;6.168;2023-08-01T09:04:34;8.68;;;3.03;;
59147;SDS011;44930;52.878;6.168;2023-08-01T09:07:01;9.02;;;2.85;;
59147;SDS011;44930;52.878;6.168;2023-08-01T09:09:30;6.28;;;2.30;;
59147;SDS011;44930;52.878;6.168;2023-08-01T09:11:57;4.88;;;2.10;;
59147;SDS011;44930;52.878;6.168;2023-08-01T09:14:24;7.97;;;2.28;;
59147;SDS011;44930;52.878;6.168;2023-08-01T09:16:49;11.95;;;2.55;;
59147;SDS011;44930;52.878;6.168;2023-08-01T09:19:18;4.22;;;1.70;;
59147;SDS011;44930;52.878;6.168;2023-08-01T09:21:46;6.75;;;1.80;;
59147;SDS011;44930;52.878;6.168;2023-08-01T09:24:13;5.20;;;2.00;;
59147;SDS011;44930;52.878;6.168;2023-08-01T09:26:43;5.63;;;2.08;;
59147;SDS011;44930;52.878;6.168;2023-08-01T09:29:09;6.30;;;1.98;;
59147;SDS011;44930;52.878;6.168;2023-08-01T09:31:36;4.80;;;2.28;;
59147;SDS011;44930;52.878;6.168;2023-08-01T09:34:05;7.03;;;2.40;;
59147;SDS011;44930;52.878;6.168;2023-08-01T09:36:42;10.20;;;2.47;;
59147;SDS011;44930;52.878;6.168;2023-08-01T09:39:07;6.65;;;2.10;;
59147;SDS011;44930;52.878;6.168;2023-08-01T09:41:33;8.00;;;1.90;;
59147;SDS011;44930;52.878;6.168;2023-08-01T09:43:59;7.85;;;2.28;;
59147;SDS011;44930;52.878;6.168;2023-08-01T09:46:25;8.38;;;2.25;;
59147;SDS011;44930;52.878;6.168;2023-08-01T09:48:50;9.63;;;2.58;;
59147;SDS011;44930;52.878;6.168;2023-08-01T09:51:16;5.40;;;2.10;;
59147;SDS011;44930;52.878;6.168;2023-08-01T09:56:18;4.72;;;1.52;;
59147;SDS011;44930;52.878;6.168;2023-08-01T09:58:46;5.93;;;1.70;;
59147;SDS011;44930;52.878;6.168;2023-08-01T10:01:15;5.88;;;1.40;;
59147;SDS011;44930;52.878;6.168;2023-08-01T10:03:44;5.25;;;1.25;;
59147;SDS011;44930;52.878;6.168;2023-08-01T10:06:18;15.18;;;2.50;;
59147;SDS011;44930;52.878;6.168;2023-08-01T10:08:45;9.05;;;2.05;;
59147;SDS011;44930;52.878;6.168;2023-08-01T10:11:20;11.13;;;2.35;;
59147;SDS011;44930;52.878;6.168;2023-08-01T10:13:47;6.88;;;2.63;;
59147;SDS011;44930;52.878;6.168;2023-08-01T10:16:13;7.70;;;2.25;;
59147;SDS011;44930;52.878;6.168;2023-08-01T10:18:40;10.10;;;2.60;;
59147;SDS011;44930;52.878;6.168;2023-08-01T10:21:17;14.00;;;2.95;;
59147;SDS011;44930;52.878;6.168;2023-08-01T10:23:45;9.02;;;2.63;;
59147;SDS011;44930;52.878;6.168;2023-08-01T10:26:12;10.85;;;2.33;;
59147;SDS011;44930;52.878;6.168;2023-08-01T10:28:39;13.13;;;2.38;;
59147;SDS011;44930;52.878;6.168;2023-08-01T10:31:07;13.50;;;2.50;;
59147;SDS011;44930;52.878;6.168;2023-08-01T10:33:33;9.38;;;2.60;;
59147;SDS011;44930;52.878;6.168;2023-08-01T10:36:00;12.90;;;2.60;;
59147;SDS011;44930;52.878;6.168;2023-08-01T10:38:25;10.32;;;1.88;;
59147;SDS011;44930;52.878;6.168;2023-08-01T10:40:51;49.47;;;5.68;;
59147;SDS011;44930;52.878;6.168;2023-08-01T10:43:20;9.30;;;2.30;;
59147;SDS011;44930;52.878;6.168;2023-08-01T10:45:46;8.88;;;1.67;;
59147;SDS011;44930;52.878;6.168;2023-08-01T10:48:12;9.73;;;2.50;;
59147;SDS011;44930;52.878;6.168;2023-08-01T10:50:38;15.73;;;2.28;;
59147;SDS011;44930;52.878;6.168;2023-08-01T10:53:05;8.38;;;1.63;;
59147;SDS011;44930;52.878;6.168;2023-08-01T10:55:42;12.27;;;3.15;;
59147;SDS011;44930;52.878;6.168;2023-08-01T10:58:09;9.82;;;1.80;;
59147;SDS011;44930;52.878;6.168;2023-08-01T11:00:35;13.02;;;2.10;;
59147;SDS011;44930;52.878;6.168;2023-08-01T11:03:00;7.88;;;1.50;;
59147;SDS011;44930;52.878;6.168;2023-08-01T11:05:26;9.50;;;1.65;;
59147;SDS011;44930;52.878;6.168;2023-08-01T11:07:53;6.93;;;1.55;;
59147;SDS011;44930;52.878;6.168;2023-08-01T11:10:24;8.23;;;1.60;;
59147;SDS011;44930;52.878;6.168;2023-08-01T11:12:51;6.45;;;1.55;;
59147;SDS011;44930;52.878;6.168;2023-08-01T11:15:18;6.55;;;1.67;;
59147;SDS011;44930;52.878;6.168;2023-08-01T11:17:48;5.90;;;1.52;;
59147;SDS011;44930;52.878;6.168;2023-08-01T11:20:15;6.85;;;1.92;;
59147;SDS011;44930;52.878;6.168;2023-08-01T11:25:18;9.00;;;1.85;;
59147;SDS011;44930;52.878;6.168;2023-08-01T11:27:45;7.30;;;1.77;;
59147;SDS011;44930;52.878;6.168;2023-08-01T11:30:10;5.93;;;1.55;;
59147;SDS011;44930;52.878;6.168;2023-08-01T11:32:36;2.67;;;1.00;;
59147;SDS011;44930;52.878;6.168;2023-08-01T11:35:03;5.15;;;1.23;;
59147;SDS011;44930;52.878;6.168;2023-08-01T11:37:29;4.45;;;1.67;;
59147;SDS011;44930;52.878;6.168;2023-08-01T11:39:55;6.00;;;1.27;;
59147;SDS011;44930;52.878;6.168;2023-08-01T11:42:22;9.05;;;2.00;;
59147;SDS011;44930;52.878;6.168;2023-08-01T11:44:48;7.53;;;1.88;;
59147;SDS011;44930;52.878;6.168;2023-08-01T11:47:14;10.82;;;2.00;;
59147;SDS011;44930;52.878;6.168;2023-08-01T11:49:47;6.85;;;1.90;;
59147;SDS011;44930;52.878;6.168;2023-08-01T11:52:23;9.95;;;2.08;;
59147;SDS011;44930;52.878;6.168;2023-08-01T11:54:50;8.85;;;2.20;;
59147;SDS011;44930;52.878;6.168;2023-08-01T11:57:15;8.43;;;2.58;;
59147;SDS011;44930;52.878;6.168;2023-08-01T11:59:51;10.75;;;2.42;;
59147;SDS011;44930;52.878;6.168;2023-08-01T12:02:35;6.35;;;1.98;;
59147;SDS011;44930;52.878;6.168;2023-08-01T12:05:01;6.30;;;2.10;;
59147;SDS011;44930;52.878;6.168;2023-08-01T12:07:26;8.73;;;2.40;;
59147;SDS011;44930;52.878;6.168;2023-08-01T12:09:54;8.05;;;1.52;;
59147;SDS011;44930;52.878;6.168;2023-08-01T12:12:25;4.35;;;1.00;;
59147;SDS011;44930;52.878;6.168;2023-08-01T12:14:52;4.35;;;1.17;;
59147;SDS011;44930;52.878;6.168;2023-08-01T12:17:18;4.90;;;1.27;;
59147;SDS011;44930;52.878;6.168;2023-08-01T12:19:43;4.25;;;1.55;;
59147;SDS011;44930;52.878;6.168;2023-08-01T12:22:09;7.40;;;1.40;;
59147;SDS011;44930;52.878;6.168;2023-08-01T12:24:35;5.43;;;1.60;;
59147;SDS011;44930;52.878;6.168;2023-08-01T12:27:03;6.30;;;1.70;;
59147;SDS011;44930;52.878;6.168;2023-08-01T12:29:30;9.70;;;2.70;;
59147;SDS011;44930;52.878;6.168;2023-08-01T12:31:56;9.82;;;2.40;;
59147;SDS011;44930;52.878;6.168;2023-08-01T12:34:21;5.57;;;2.22;;
59147;SDS011;44930;52.878;6.168;2023-08-01T12:36:47;5.22;;;1.67;;
59147;SDS011;44930;52.878;6.168;2023-08-01T12:39:12;5.78;;;1.38;;
59147;SDS011;44930;52.878;6.168;2023-08-01T12:41:38;3.45;;;1.52;;
59147;SDS011;44930;52.878;6.168;2023-08-01T12:44:04;6.32;;;1.90;;
59147;SDS011;44930;52.878;6.168;2023-08-01T12:46:29;6.22;;;2.13;;
59147;SDS011;44930;52.878;6.168;2023-08-01T12:48:55;8.32;;;3.25;;
59147;SDS011;44930;52.878;6.168;2023-08-01T12:51:21;5.82;;;2.10;;
59147;SDS011;44930;52.878;6.168;2023-08-01T12:53:46;6.43;;;1.90;;
59147;SDS011;44930;52.878;6.168;2023-08-01T12:56:12;12.30;;;2.50;;
59147;SDS011;44930;52.878;6.168;2023-08-01T12:58:38;7.45;;;2.15;;
59147;SDS011;44930;52.878;6.168;2023-08-01T13:01:03;10.70;;;2.22;;
59147;SDS011;44930;52.878;6.168;2023-08-01T13:03:29;7.60;;;2.50;;
59147;SDS011;44930;52.878;6.168;2023-08-01T13:05:55;9.13;;;2.30;;
59147;SDS011;44930;52.878;6.168;2023-08-01T13:08:22;9.88;;;2.53;;
59147;SDS011;44930;52.878;6.168;2023-08-01T13:10:48;10.18;;;2.38;;
59147;SDS011;44930;52.878;6.168;2023-08-01T13:13:14;6.18;;;2.30;;
59147;SDS011;44930;52.878;6.168;2023-08-01T13:15:41;7.55;;;1.60;;
59147;SDS011;44930;52.878;6.168;2023-08-01T13:18:06;7.63;;;1.83;;
59147;SDS011;44930;52.878;6.168;2023-08-01T13:20:32;9.40;;;1.92;;
59147;SDS011;44930;52.878;6.168;2023-08-01T13:22:57;6.38;;;2.50;;
59147;SDS011;44930;52.878;6.168;2023-08-01T13:25:23;7.57;;;1.35;;
59147;SDS011;44930;52.878;6.168;2023-08-01T13:27:48;5.18;;;1.52;;
59147;SDS011;44930;52.878;6.168;2023-08-01T13:30:14;9.25;;;2.17;;
59147;SDS011;44930;52.878;6.168;2023-08-01T13:32:42;3.40;;;1.00;;
59147;SDS011;44930;52.878;6.168;2023-08-01T13:35:08;3.38;;;0.93;;
59147;SDS011;44930;52.878;6.168;2023-08-01T13:37:34;6.75;;;2.88;;
59147;SDS011;44930;52.878;6.168;2023-08-01T13:40:00;2.72;;;1.30;;
59147;SDS011;44930;52.878;6.168;2023-08-01T13:42:25;3.38;;;1.08;;
59147;SDS011;44930;52.878;6.168;2023-08-01T13:44:53;5.20;;;1.48;;
59147;SDS011;44930;52.878;6.168;2023-08-01T13:47:19;6.03;;;1.45;;
59147;SDS011;44930;52.878;6.168;2023-08-01T13:49:45;4.80;;;1.42;;
59147;SDS011;44930;52.878;6.168;2023-08-01T13:52:10;5.18;;;1.90;;
59147;SDS011;44930;52.878;6.168;2023-08-01T13:54:36;7.88;;;1.48;;
59147;SDS011;44930;52.878;6.168;2023-08-01T13:57:01;4.47;;;1.50;;
59147;SDS011;44930;52.878;6.168;2023-08-01T13:59:27;7.70;;;2.17;;
59147;SDS011;44930;52.878;6.168;2023-08-01T14:01:52;9.45;;;1.63;;
59147;SDS011;44930;52.878;6.168;2023-08-01T14:04:20;3.67;;;1.30;;
59147;SDS011;44930;52.878;6.168;2023-08-01T14:06:46;3.17;;;1.15;;
59147;SDS011;44930;52.878;6.168;2023-08-01T14:09:11;3.33;;;1.50;;
59147;SDS011;44930;52.878;6.168;2023-08-01T14:11:37;2.70;;;1.00;;
59147;SDS011;44930;52.878;6.168;2023-08-01T14:14:04;4.65;;;1.23;;
59147;SDS011;44930;52.878;6.168;2023-08-01T14:16:29;3.95;;;1.17;;
59147;SDS011;44930;52.878;6.168;2023-08-01T14:18:56;6.03;;;1.80;;
59147;SDS011;44930;52.878;6.168;2023-08-01T14:21:22;9.20;;;2.08;;
59147;SDS011;44930;52.878;6.168;2023-08-01T14:23:47;3.92;;;1.15;;
59147;SDS011;44930;52.878;6.168;2023-08-01T14:26:13;9.90;;;2.05;;
59147;SDS011;44930;52.878;6.168;2023-08-01T14:28:39;7.15;;;1.77;;
59147;SDS011;44930;52.878;6.168;2023-08-01T14:31:04;7.40;;;1.88;;
59147;SDS011;44930;52.878;6.168;2023-08-01T14:33:30;6.72;;;1.75;;
59147;SDS011;44930;52.878;6.168;2023-08-01T14:35:56;5.18;;;1.25;;
59147;SDS011;44930;52.878;6.168;2023-08-01T14:38:22;7.35;;;1.65;;
59147;SDS011;44930;52.878;6.168;2023-08-01T14:40:48;4.00;;;1.60;;
59147;SDS011;44930;52.878;6.168;2023-08-01T14:43:13;5.30;;;1.55;;